Time,TemperatureF,DewpointF,PressureIn,WindDirection,WindDirectionDegrees,WindSpeedMPH,WindSpeedGustMPH,Humidity,HourlyPrecipIn,Conditions,Clouds,dailyrainin,SoftwareType,DateUTC
2013-06-13 00:00:00,68.0,55.8,29.93,NE,51,3.0,3.0,65,0.00,,,0.00,Wunderground v.1.15,2013-06-13 05:00:00,
2013-06-13 00:10:00,67.5,55.3,29.93,NE,36,4.0,4.0,65,0.00,,,0.00,Wunderground v.1.15,2013-06-13 05:10:00,
2013-06-13 00:20:00,66.9,55.2,29.94,NNW,333,3.0,3.0,66,0.00,,,0.00,Wunderground v.1.15,2013-06-13 05:20:00,
2013-06-13 00:30:00,66.5,54.8,29.94,NNW,347,2.0,5.0,66,0.00,,,0.00,Wunderground v.1.15,2013-06-13 05:30:00,
2013-06-13 00:40:00,66.2,54.5,29.95,NNE,32,4.0,4.0,66,0.00,,,0.00,Wunderground v.1.15,2013-06-13 05:40:00,
2013-06-13 00:50:00,65.8,54.1,29.95,ENE,70,2.0,2.0,66,0.00,,,0.00,Wunderground v.1.15,2013-06-13 05:50:00,
2013-06-13 01:00:00,65.6,54.3,29.94,NNE,24,5.0,5.0,67,0.00,,,0.00,Wunderground v.1.15,2013-06-13 06:00:00,
2013-06-13 01:10:00,65.2,54.0,29.95,NE,44,2.0,3.0,67,0.00,,,0.00,Wunderground v.1.15,2013-06-13 06:10:00,
2013-06-13 01:20:00,64.9,54.1,29.95,ESE,106,3.0,3.0,68,0.00,,,0.00,Wunderground v.1.15,2013-06-13 06:20:00,
2013-06-13 01:30:00,64.6,54.2,29.95,NE,46,3.0,3.0,69,0.00,,,0.00,Wunderground v.1.15,2013-06-13 06:30:00,
2013-06-13 01:40:00,64.2,54.2,29.96,NE,42,3.0,3.0,70,0.00,,,0.00,Wunderground v.1.15,2013-06-13 06:40:00,
2013-06-13 01:50:00,63.9,54.3,29.95,NE,55,3.0,5.0,71,0.00,,,0.00,Wunderground v.1.15,2013-06-13 06:50:00,
2013-06-13 02:00:00,63.4,54.2,29.95,NNE,22,3.0,3.0,72,0.00,,,0.00,Wunderground v.1.15,2013-06-13 07:00:00,
2013-06-13 02:10:00,62.9,54.1,29.95,NNW,339,3.0,3.0,73,0.00,,,0.00,Wunderground v.1.15,2013-06-13 07:10:00,
2013-06-13 02:20:00,62.6,54.2,29.96,NE,37,1.0,2.0,74,0.00,,,0.00,Wunderground v.1.15,2013-06-13 07:20:00,
2013-06-13 02:40:00,61.8,53.4,29.97,North,349,0.0,0.0,74,0.00,,,0.00,Wunderground v.1.15,2013-06-13 07:40:00,
2013-06-13 02:50:00,61.2,53.2,29.98,NW,324,0.0,0.0,75,0.00,,,0.00,Wunderground v.1.15,2013-06-13 07:50:00,
2013-06-13 03:00:00,60.7,53.1,29.98,NNW,330,0.0,0.0,76,0.00,,,0.00,Wunderground v.1.15,2013-06-13 08:00:00,
2013-06-13 03:10:00,60.2,53.0,29.99,NNW,330,0.0,0.0,77,0.00,,,0.00,Wunderground v.1.15,2013-06-13 08:10:00,
2013-06-13 03:20:00,59.9,53.0,29.99,NNE,16,0.0,0.0,78,0.00,,,0.00,Wunderground v.1.15,2013-06-13 08:20:00,
2013-06-13 03:30:00,60.2,52.6,29.99,ENE,78,2.0,2.0,76,0.00,,,0.00,Wunderground v.1.15,2013-06-13 08:30:00,
2013-06-13 03:40:00,60.1,52.5,29.99,North,7,1.0,1.0,76,0.00,,,0.00,Wunderground v.1.15,2013-06-13 08:40:00,
2013-06-13 03:50:00,59.7,52.5,29.99,NNE,18,0.0,1.0,77,0.00,,,0.00,Wunderground v.1.15,2013-06-13 08:50:00,
2013-06-13 04:00:00,59.0,52.1,29.99,NE,44,1.0,1.0,78,0.00,,,0.00,Wunderground v.1.15,2013-06-13 09:00:00,
2013-06-13 04:10:00,58.5,52.0,29.98,NE,38,2.0,2.0,79,0.00,,,0.00,Wunderground v.1.15,2013-06-13 09:10:00,
2013-06-13 04:20:00,58.3,52.2,29.98,NNE,33,1.0,1.0,80,0.00,,,0.00,Wunderground v.1.15,2013-06-13 09:20:00,
2013-06-13 04:30:00,57.9,51.8,29.98,NNE,22,1.0,2.0,80,0.00,,,0.00,Wunderground v.1.15,2013-06-13 09:30:00,
2013-06-13 04:40:00,57.5,51.7,29.98,East,91,1.0,1.0,81,0.00,,,0.00,Wunderground v.1.15,2013-06-13 09:40:00,
2013-06-13 04:50:00,57.3,51.9,29.98,NNE,31,1.0,2.0,82,0.00,,,0.00,Wunderground v.1.15,2013-06-13 09:50:00,
2013-06-13 05:00:00,57.1,51.7,29.98,NE,53,1.0,1.0,82,0.00,,,0.00,Wunderground v.1.15,2013-06-13 10:00:00,
2013-06-13 05:10:00,56.9,51.8,29.99,NE,49,0.0,0.0,83,0.00,,,0.00,Wunderground v.1.15,2013-06-13 10:10:00,
2013-06-13 05:20:00,56.7,51.6,29.99,SSW,203,0.0,0.0,83,0.00,,,0.00,Wunderground v.1.15,2013-06-13 10:20:00,
2013-06-13 05:30:00,56.5,51.7,29.99,SSW,204,0.0,0.0,84,0.00,,,0.00,Wunderground v.1.15,2013-06-13 10:30:00,
2013-06-13 05:40:00,56.5,51.7,30.00,SSW,201,0.0,0.0,84,0.00,,,0.00,Wunderground v.1.15,2013-06-13 10:40:00,
2013-06-13 05:50:00,56.6,52.1,30.00,SSW,201,0.0,0.0,85,0.00,,,0.00,Wunderground v.1.15,2013-06-13 10:50:00,
2013-06-13 06:00:00,56.3,51.8,30.01,SSW,201,0.0,0.0,85,0.00,,,0.00,Wunderground v.1.15,2013-06-13 11:00:00,
2013-06-13 06:10:00,56.0,51.9,30.00,SSW,201,0.0,0.0,86,0.00,,,0.00,Wunderground v.1.15,2013-06-13 11:10:00,
2013-06-13 06:20:00,56.1,52.0,29.99,SSW,200,0.0,0.0,86,0.00,,,0.00,Wunderground v.1.15,2013-06-13 11:20:00,
2013-06-13 06:30:00,56.6,52.1,29.99,ENE,67,0.0,0.0,85,0.00,,,0.00,Wunderground v.1.15,2013-06-13 11:30:00,
2013-06-13 06:40:00,57.0,52.5,29.99,East,100,0.0,0.0,85,0.00,,,0.00,Wunderground v.1.15,2013-06-13 11:40:00,
2013-06-13 06:50:00,57.4,52.6,30.01,West,271,0.0,0.0,84,0.00,,,0.00,Wunderground v.1.15,2013-06-13 11:50:00,
2013-06-13 07:00:00,57.5,52.7,30.00,SW,229,0.0,0.0,84,0.00,,,0.00,Wunderground v.1.15,2013-06-13 12:00:00,
2013-06-13 07:10:00,57.7,52.9,30.00,NNW,342,0.0,0.0,84,0.00,,,0.00,Wunderground v.1.15,2013-06-13 12:10:00,
2013-06-13 07:20:00,58.7,53.2,30.01,NE,46,1.0,3.0,82,0.00,,,0.00,Wunderground v.1.15,2013-06-13 12:20:00,
2013-06-13 07:30:00,59.3,53.5,30.01,North,356,1.0,2.0,81,0.00,,,0.00,Wunderground v.1.15,2013-06-13 12:30:00,
2013-06-13 07:40:00,60.2,54.0,30.02,NNE,19,1.0,4.0,80,0.00,,,0.00,Wunderground v.1.15,2013-06-13 12:40:00,
2013-06-13 07:50:00,61.2,53.9,30.02,NE,51,2.0,2.0,77,0.00,,,0.00,Wunderground v.1.15,2013-06-13 12:50:00,
2013-06-13 08:00:00,62.3,54.6,30.02,ENE,68,2.0,2.0,76,0.00,,,0.00,Wunderground v.1.15,2013-06-13 13:00:00,
2013-06-13 08:10:00,63.2,55.1,30.02,NW,321,2.0,2.0,75,0.00,,,0.00,Wunderground v.1.15,2013-06-13 13:10:00,
2013-06-13 08:20:00,63.7,55.3,30.01,East,81,3.0,3.0,74,0.00,,,0.00,Wunderground v.1.15,2013-06-13 13:20:00,
2013-06-13 08:30:00,64.7,55.8,30.02,East,96,2.0,3.0,73,0.00,,,0.00,Wunderground v.1.15,2013-06-13 13:30:00,
2013-06-13 08:40:00,65.4,56.5,30.02,ENE,61,3.0,4.0,73,0.00,,,0.00,Wunderground v.1.15,2013-06-13 13:40:00,
2013-06-13 08:50:00,66.3,55.8,30.02,ENE,63,3.0,3.0,69,0.00,,,0.00,Wunderground v.1.15,2013-06-13 13:50:00,
2013-06-13 09:00:00,67.3,56.0,30.01,NNE,32,3.0,4.0,67,0.00,,,0.00,Wunderground v.1.15,2013-06-13 14:00:00,
2013-06-13 09:10:00,68.2,55.6,30.01,ESE,114,4.0,4.0,64,0.00,,,0.00,Wunderground v.1.15,2013-06-13 14:10:00,
2013-06-13 09:20:00,69.0,54.1,30.01,ENE,62,4.0,4.0,59,0.00,,,0.00,Wunderground v.1.15,2013-06-13 14:20:00,
2013-06-13 09:30:00,69.6,55.1,30.01,ENE,72,4.0,7.0,60,0.00,,,0.00,Wunderground v.1.15,2013-06-13 14:30:00,
2013-06-13 09:40:00,70.0,54.5,30.01,ENE,70,4.0,4.0,58,0.00,,,0.00,Wunderground v.1.15,2013-06-13 14:40:00,
2013-06-13 09:50:00,71.0,55.5,30.02,East,98,3.0,3.0,58,0.00,,,0.00,Wunderground v.1.15,2013-06-13 14:50:00,
2013-06-13 10:00:00,71.3,55.8,30.02,SSE,161,4.0,4.0,58,0.00,,,0.00,Wunderground v.1.15,2013-06-13 15:00:00,
2013-06-13 10:10:00,72.0,54.9,30.02,SSW,195,3.0,3.0,55,0.00,,,0.00,Wunderground v.1.15,2013-06-13 15:10:00,
2013-06-13 10:20:00,72.6,55.0,30.01,ESE,113,4.0,4.0,54,0.00,,,0.00,Wunderground v.1.15,2013-06-13 15:20:00,
2013-06-13 10:30:00,72.7,55.1,30.01,ESE,102,4.0,5.0,54,0.00,,,0.00,Wunderground v.1.15,2013-06-13 15:30:00,
2013-06-13 10:40:00,72.8,53.6,30.00,SE,133,4.0,8.0,51,0.00,,,0.00,Wunderground v.1.15,2013-06-13 15:40:00,
2013-06-13 10:50:00,72.6,54.0,30.01,ESE,104,4.0,4.0,52,0.00,,,0.00,Wunderground v.1.15,2013-06-13 15:50:00,
2013-06-13 11:00:00,72.1,53.5,30.01,SE,129,3.0,3.0,52,0.00,,,0.00,Wunderground v.1.15,2013-06-13 16:00:00,
2013-06-13 11:10:00,72.4,54.3,30.00,East,96,3.0,6.0,53,0.00,,,0.00,Wunderground v.1.15,2013-06-13 16:10:00,
2013-06-13 11:20:00,72.8,54.7,30.00,South,176,3.0,3.0,53,0.00,,,0.00,Wunderground v.1.15,2013-06-13 16:20:00,
2013-06-13 11:30:00,74.6,54.7,30.00,SSE,147,3.0,3.0,50,0.00,,,0.00,Wunderground v.1.15,2013-06-13 16:30:00,
2013-06-13 11:40:00,74.3,53.9,30.01,SE,128,3.0,3.0,49,0.00,,,0.00,Wunderground v.1.15,2013-06-13 16:40:00,
2013-06-13 11:50:00,75.3,55.9,30.01,ENE,74,3.0,6.0,51,0.00,,,0.00,Wunderground v.1.15,2013-06-13 16:50:00,
2013-06-13 12:00:00,75.5,54.4,30.01,East,98,4.0,4.0,48,0.00,,,0.00,Wunderground v.1.15,2013-06-13 17:00:00,
2013-06-13 12:10:00,76.6,56.6,30.01,North,359,2.0,2.0,50,0.00,,,0.00,Wunderground v.1.15,2013-06-13 17:10:00,
2013-06-13 12:20:00,78.0,56.1,30.01,ESE,122,2.0,7.0,47,0.00,,,0.00,Wunderground v.1.15,2013-06-13 17:20:00,
2013-06-13 12:30:00,77.0,55.8,30.00,ESE,114,4.0,4.0,48,0.00,,,0.00,Wunderground v.1.15,2013-06-13 17:30:00,
2013-06-13 12:40:00,77.1,55.3,30.00,East,97,4.0,4.0,47,0.00,,,0.00,Wunderground v.1.15,2013-06-13 17:40:00,
2013-06-13 12:50:00,77.3,56.6,29.99,SE,129,3.0,3.0,49,0.00,,,0.00,Wunderground v.1.15,2013-06-13 17:50:00,
2013-06-13 13:00:00,78.4,57.1,29.98,East,90,4.0,6.0,48,0.00,,,0.00,Wunderground v.1.15,2013-06-13 18:00:00,
2013-06-13 13:10:00,79.0,58.2,29.98,SE,142,5.0,5.0,49,0.00,,,0.00,Wunderground v.1.15,2013-06-13 18:10:00,
2013-06-13 13:20:00,80.1,58.6,29.97,ESE,113,4.0,4.0,48,0.00,,,0.00,Wunderground v.1.15,2013-06-13 18:20:00,
2013-06-13 13:30:00,80.7,58.6,29.97,SE,139,5.0,5.0,47,0.00,,,0.00,Wunderground v.1.15,2013-06-13 18:30:00,
2013-06-13 13:40:00,78.4,57.1,29.96,SSE,160,5.0,5.0,48,0.00,,,0.00,Wunderground v.1.15,2013-06-13 18:40:00,
2013-06-13 13:50:00,77.6,59.1,29.96,SE,138,3.0,3.0,53,0.00,,,0.00,Wunderground v.1.15,2013-06-13 18:50:00,
2013-06-13 14:00:00,78.6,60.6,29.96,East,79,3.0,3.0,54,0.00,,,0.00,Wunderground v.1.15,2013-06-13 19:00:00,
2013-06-13 14:10:00,80.9,60.5,29.95,NNE,32,3.0,4.0,50,0.00,,,0.00,Wunderground v.1.15,2013-06-13 19:10:00,
2013-06-13 14:20:00,81.3,59.1,29.95,ESE,115,3.0,6.0,47,0.00,,,0.00,Wunderground v.1.15,2013-06-13 19:20:00,
2013-06-13 14:30:00,81.9,60.3,29.95,ESE,111,4.0,4.0,48,0.00,,,0.00,Wunderground v.1.15,2013-06-13 19:30:00,
2013-06-13 14:40:00,82.1,59.3,29.93,ESE,122,4.0,5.0,46,0.00,,,0.00,Wunderground v.1.15,2013-06-13 19:40:00,
2013-06-13 14:50:00,82.6,60.3,29.93,East,94,5.0,5.0,47,0.00,,,0.00,Wunderground v.1.15,2013-06-13 19:50:00,
2013-06-13 15:00:00,83.3,59.7,29.93,SE,125,3.0,3.0,45,0.00,,,0.00,Wunderground v.1.15,2013-06-13 20:00:00,
2013-06-13 15:10:00,83.5,60.5,29.93,ESE,108,4.0,4.0,46,0.00,,,0.00,Wunderground v.1.15,2013-06-13 20:10:00,
2013-06-13 15:20:00,84.2,61.2,29.92,NNE,29,4.0,6.0,46,0.00,,,0.00,Wunderground v.1.15,2013-06-13 20:20:00,
2013-06-13 15:30:00,84.3,60.6,29.92,ESE,111,4.0,5.0,45,0.00,,,0.00,Wunderground v.1.15,2013-06-13 20:30:00,
2013-06-13 15:40:00,84.8,61.1,29.91,ENE,68,4.0,5.0,45,0.00,,,0.00,Wunderground v.1.15,2013-06-13 20:40:00,
2013-06-13 15:50:00,85.0,61.9,29.90,ESE,110,4.0,6.0,46,0.00,,,0.00,Wunderground v.1.15,2013-06-13 20:50:00,
2013-06-13 16:00:00,85.6,61.8,29.90,SE,131,4.0,5.0,45,0.00,,,0.00,Wunderground v.1.15,2013-06-13 21:00:00,
2013-06-13 16:10:00,86.1,61.6,29.89,ESE,104,4.0,5.0,44,0.00,,,0.00,Wunderground v.1.15,2013-06-13 21:10:00,
2013-06-13 16:20:00,86.1,61.0,29.89,SSE,158,5.0,5.0,43,0.00,,,0.00,Wunderground v.1.15,2013-06-13 21:20:00,
2013-06-13 16:30:00,86.2,61.7,29.89,East,100,5.0,5.0,44,0.00,,,0.00,Wunderground v.1.15,2013-06-13 21:30:00,
2013-06-13 16:40:00,86.1,61.6,29.89,ENE,63,5.0,5.0,44,0.00,,,0.00,Wunderground v.1.15,2013-06-13 21:40:00,
2013-06-13 16:50:00,86.3,61.2,29.88,East,96,5.0,11.0,43,0.00,,,0.00,Wunderground v.1.15,2013-06-13 21:50:00,
2013-06-13 17:00:00,86.2,61.1,29.88,ESE,117,5.0,5.0,43,0.00,,,0.00,Wunderground v.1.15,2013-06-13 22:00:00,
2013-06-13 17:10:00,86.4,60.6,29.87,South,180,5.0,5.0,42,0.00,,,0.00,Wunderground v.1.15,2013-06-13 22:10:00,
2013-06-13 17:20:00,86.5,61.3,29.87,NE,40,4.0,5.0,43,0.00,,,0.00,Wunderground v.1.15,2013-06-13 22:20:00,
2013-06-13 17:30:00,86.6,62.1,29.87,SE,134,5.0,5.0,44,0.00,,,0.00,Wunderground v.1.15,2013-06-13 22:30:00,
2013-06-13 17:40:00,86.3,61.2,29.87,SE,128,5.0,5.0,43,0.00,,,0.00,Wunderground v.1.15,2013-06-13 22:40:00,
2013-06-13 17:50:00,86.3,61.8,29.87,SSE,154,5.0,5.0,44,0.00,,,0.00,Wunderground v.1.15,2013-06-13 22:50:00,
2013-06-13 18:00:00,86.1,62.9,29.87,SE,135,5.0,5.0,46,0.00,,,0.00,Wunderground v.1.15,2013-06-13 23:00:00,
2013-06-13 18:10:00,86.0,61.5,29.87,SE,131,5.0,5.0,44,0.00,,,0.00,Wunderground v.1.15,2013-06-13 23:10:00,
2013-06-13 18:20:00,85.9,61.5,29.87,SSE,158,6.0,6.0,44,0.00,,,0.00,Wunderground v.1.15,2013-06-13 23:20:00,
2013-06-13 18:30:00,85.7,61.9,29.87,SSE,153,5.0,5.0,45,0.00,,,0.00,Wunderground v.1.15,2013-06-13 23:30:00,
2013-06-13 18:40:00,85.4,62.3,29.86,SSE,161,6.0,6.0,46,0.00,,,0.00,Wunderground v.1.15,2013-06-13 23:40:00,
2013-06-13 18:50:00,85.1,62.0,29.86,SE,127,6.0,6.0,46,0.00,,,0.00,Wunderground v.1.15,2013-06-13 23:50:00,
2013-06-13 19:00:00,84.9,62.4,29.86,SSE,148,5.0,10.0,47,0.00,,,0.00,Wunderground v.1.15,2013-06-14 00:00:00,
2013-06-13 19:10:00,84.7,62.2,29.85,ESE,105,5.0,8.0,47,0.00,,,0.00,Wunderground v.1.15,2013-06-14 00:10:00,
2013-06-13 19:20:00,84.2,62.4,29.85,SW,236,6.0,6.0,48,0.00,,,0.00,Wunderground v.1.15,2013-06-14 00:20:00,
2013-06-13 19:30:00,83.8,63.2,29.85,East,86,5.0,5.0,50,0.00,,,0.00,Wunderground v.1.15,2013-06-14 00:30:00,
2013-06-13 19:40:00,83.4,63.4,29.85,NE,38,5.0,5.0,51,0.00,,,0.00,Wunderground v.1.15,2013-06-14 00:40:00,
2013-06-13 19:50:00,82.8,63.9,29.85,East,84,5.0,7.0,53,0.00,,,0.00,Wunderground v.1.15,2013-06-14 00:50:00,
2013-06-13 20:00:00,81.7,63.4,29.85,East,80,4.0,4.0,54,0.00,,,0.00,Wunderground v.1.15,2013-06-14 01:00:00,
2013-06-13 20:10:00,80.1,63.0,29.85,ESE,110,5.0,5.0,56,0.00,,,0.00,Wunderground v.1.15,2013-06-14 01:10:00,
2013-06-13 20:20:00,79.2,63.1,29.85,ESE,117,4.0,4.0,58,0.00,,,0.00,Wunderground v.1.15,2013-06-14 01:20:00,
2013-06-13 20:30:00,78.5,63.0,29.85,SE,139,3.0,7.0,59,0.00,,,0.00,Wunderground v.1.15,2013-06-14 01:30:00,
2013-06-13 20:40:00,77.7,63.2,29.85,ESE,103,5.0,5.0,61,0.00,,,0.00,Wunderground v.1.15,2013-06-14 01:40:00,
2013-06-13 20:50:00,77.1,63.1,29.85,SSE,152,3.0,3.0,62,0.00,,,0.00,Wunderground v.1.15,2013-06-14 01:50:00,
2013-06-13 21:00:00,76.6,63.1,29.85,South,189,3.0,4.0,63,0.00,,,0.00,Wunderground v.1.15,2013-06-14 02:00:00,
2013-06-13 21:10:00,76.2,63.1,29.85,ESE,113,3.0,3.0,64,0.00,,,0.00,Wunderground v.1.15,2013-06-14 02:10:00,
2013-06-13 21:20:00,75.8,63.2,29.85,SE,131,3.0,3.0,65,0.00,,,0.00,Wunderground v.1.15,2013-06-14 02:20:00,
2013-06-13 21:30:00,75.3,62.7,29.85,East,91,3.0,8.0,65,0.00,,,0.00,Wunderground v.1.15,2013-06-14 02:30:00,
2013-06-13 21:40:00,75.1,63.0,29.84,SE,136,3.0,3.0,66,0.00,,,0.00,Wunderground v.1.15,2013-06-14 02:40:00,
2013-06-13 21:50:00,74.7,63.0,29.85,ESE,115,2.0,2.0,67,0.00,,,0.00,Wunderground v.1.15,2013-06-14 02:50:00,
2013-06-13 22:00:00,74.3,63.1,29.85,ENE,70,2.0,2.0,68,0.00,,,0.00,Wunderground v.1.15,2013-06-14 03:00:00,
2013-06-13 22:10:00,73.9,63.1,29.85,ESE,105,3.0,4.0,69,0.00,,,0.00,Wunderground v.1.15,2013-06-14 03:10:00,
2013-06-13 22:20:00,73.7,62.9,29.86,East,94,3.0,3.0,69,0.00,,,0.00,Wunderground v.1.15,2013-06-14 03:20:00,
2013-06-13 22:30:00,73.5,63.1,29.87,ENE,70,3.0,3.0,70,0.00,,,0.00,Wunderground v.1.15,2013-06-14 03:30:00,
2013-06-13 22:40:00,73.3,63.3,29.87,East,101,2.0,2.0,71,0.00,,,0.00,Wunderground v.1.15,2013-06-14 03:40:00,
2013-06-13 22:50:00,73.0,63.0,29.87,ENE,78,2.0,2.0,71,0.00,,,0.00,Wunderground v.1.15,2013-06-14 03:50:00,
2013-06-13 23:00:00,72.9,63.3,29.87,East,96,2.0,2.0,72,0.00,,,0.00,Wunderground v.1.15,2013-06-14 04:00:00,
2013-06-13 23:10:00,72.7,63.5,29.87,East,79,2.0,2.0,73,0.00,,,0.00,Wunderground v.1.15,2013-06-14 04:10:00,
2013-06-13 23:20:00,72.7,63.5,29.87,SE,124,2.0,2.0,73,0.00,,,0.00,Wunderground v.1.15,2013-06-14 04:20:00,
2013-06-13 23:30:00,72.6,63.4,29.86,ESE,115,2.0,2.0,73,0.00,,,0.00,Wunderground v.1.15,2013-06-14 04:30:00,
2013-06-13 23:40:00,72.5,63.7,29.86,ESE,113,2.0,2.0,74,0.00,,,0.00,Wunderground v.1.15,2013-06-14 04:40:00,
2013-06-13 23:50:00,72.4,63.6,29.86,SSE,163,1.0,4.0,74,0.00,,,0.00,Wunderground v.1.15,2013-06-14 04:50:00,